Aérodrome :
LOGIN :

S'inscrire | Disclaimer

   EN    FR    IT 

 










Légende :    VFR   VFR Marginal   IFR   IFR Intensif   IFR Très Intensif
Visi : 
Plafond : 
>= 8 km
>= 3000ft
5 à 8 km
1000 à 3000 ft
1500m à 5 km
500 à 1000 ft
800 à 1500m
200 à 500 ft
< 800m
< 200 ft
Symboles :   Orages  Brouillard  Fortes neiges  Fortes précipitations  Vent > 20 kt
SIGMETs :   Divers  Orages  Givrage  Turbulence  Onde Orograph.  Cendres Volcan.







- Altitude de l'aérodrome : 375 ft
- Code IATA : MST


EHBK - Maastricht Aachen

DERNIER METAR :
  • 181855Z AUTO VRB02KT 9999 NSC 04/M00 Q1013 NOSIG

METARs EXPIRÉS :
  • 181825Z AUTO 12007KT 100V180 9999 NSC 04/00 Q1014 NOSIG
  • 181755Z AUTO 13007KT 9999 NSC 04/00 Q1014 NOSIG
  • 181725Z AUTO 11005KT 080V140 9999 NSC 04/00 Q1015 NOSIG
  • 181655Z AUTO 12006KT 9999 NSC 04/01 Q1015 NOSIG
  • 181625Z AUTO 13007KT 9999 NSC 04/01 Q1016 NOSIG
  • 181555Z AUTO 12005KT 9999 NSC 05/02 Q1016 NOSIG

TAF TAF EHBK
Valide du 18 à 18h jusqu'au 20 à 00h UTC


181707Z 1818/1924 13006KT CAVOK
BECMG 1819/1822 17012KT
BECMG 1903/1906 21012KT
PROB30
TEMPO 1904/1908 7000 -RA BKN012
PROB30
TEMPO 1918/1922 4000 SHRA SCT018CB
Pas de NOTAMs connus pour ce terrain.



MET'MAP, la Météo Aéronautique d'un coup d'oeil ! - Copyright ORBIFLY Décembre 2007 - Disclaimer

ORBIFLY MET'MAP TEAM :

Programmation & Développement : Alexandra Zaïnal
Conception & Développement : Baudouin d'Aumeries
Co-Programmation & Développement : Marc-Olivier Méhu
Soutien technique & logistique : Manuel Goepfert

Contact : metmap@orbifly.com




SOURCES & CREDITS :

   NOAA